sensor_id;sensor_type;location;lat;lon;timestamp;P1;durP1;ratioP1;P2;durP2;ratioP2
27939;SDS011;15275;51.716;14.324;2023-04-21T00:01:31;16.88;;;6.03;;
27939;SDS011;15275;51.716;14.324;2023-04-21T00:03:58;10.55;;;5.22;;
27939;SDS011;15275;51.716;14.324;2023-04-21T00:06:25;11.05;;;5.93;;
27939;SDS011;15275;51.716;14.324;2023-04-21T00:08:52;12.18;;;6.30;;
27939;SDS011;15275;51.716;14.324;2023-04-21T00:11:18;16.25;;;5.97;;
27939;SDS011;15275;51.716;14.324;2023-04-21T00:13:44;11.07;;;5.20;;
27939;SDS011;15275;51.716;14.324;2023-04-21T00:16:10;12.32;;;6.32;;
27939;SDS011;15275;51.716;14.324;2023-04-21T00:18:36;13.60;;;6.45;;
27939;SDS011;15275;51.716;14.324;2023-04-21T00:21:02;11.55;;;5.63;;
27939;SDS011;15275;51.716;14.324;2023-04-21T00:23:28;12.82;;;5.45;;
27939;SDS011;15275;51.716;14.324;2023-04-21T00:25:54;12.23;;;6.18;;
27939;SDS011;15275;51.716;14.324;2023-04-21T00:28:20;14.23;;;6.07;;
27939;SDS011;15275;51.716;14.324;2023-04-21T00:30:46;10.00;;;6.05;;
27939;SDS011;15275;51.716;14.324;2023-04-21T00:33:11;16.63;;;5.80;;
27939;SDS011;15275;51.716;14.324;2023-04-21T00:35:37;10.25;;;5.25;;
27939;SDS011;15275;51.716;14.324;2023-04-21T00:38:03;12.75;;;5.15;;
27939;SDS011;15275;51.716;14.324;2023-04-21T00:40:29;9.25;;;5.40;;
27939;SDS011;15275;51.716;14.324;2023-04-21T00:42:55;7.28;;;5.10;;
27939;SDS011;15275;51.716;14.324;2023-04-21T00:45:21;16.83;;;5.93;;
27939;SDS011;15275;51.716;14.324;2023-04-21T00:47:47;14.02;;;6.75;;
27939;SDS011;15275;51.716;14.324;2023-04-21T00:50:13;16.65;;;5.75;;
27939;SDS011;15275;51.716;14.324;2023-04-21T00:52:39;12.88;;;5.78;;
27939;SDS011;15275;51.716;14.324;2023-04-21T00:55:06;10.38;;;5.95;;
27939;SDS011;15275;51.716;14.324;2023-04-21T00:57:33;15.07;;;6.70;;
27939;SDS011;15275;51.716;14.324;2023-04-21T01:00:02;13.18;;;6.28;;
27939;SDS011;15275;51.716;14.324;2023-04-21T01:02:30;13.63;;;6.40;;
27939;SDS011;15275;51.716;14.324;2023-04-21T01:04:57;14.85;;;6.68;;
27939;SDS011;15275;51.716;14.324;2023-04-21T01:07:23;11.05;;;5.78;;
27939;SDS011;15275;51.716;14.324;2023-04-21T01:09:49;13.52;;;5.50;;
27939;SDS011;15275;51.716;14.324;2023-04-21T01:12:15;17.33;;;5.65;;
27939;SDS011;15275;51.716;14.324;2023-04-21T01:14:41;16.60;;;6.00;;
27939;SDS011;15275;51.716;14.324;2023-04-21T01:17:07;10.32;;;5.55;;
27939;SDS011;15275;51.716;14.324;2023-04-21T01:19:37;12.70;;;5.82;;
27939;SDS011;15275;51.716;14.324;2023-04-21T01:22:06;11.30;;;5.18;;
27939;SDS011;15275;51.716;14.324;2023-04-21T01:24:40;13.38;;;5.72;;
27939;SDS011;15275;51.716;14.324;2023-04-21T01:27:12;11.88;;;5.47;;
27939;SDS011;15275;51.716;14.324;2023-04-21T01:29:43;11.32;;;5.30;;
27939;SDS011;15275;51.716;14.324;2023-04-21T01:32:12;12.57;;;5.57;;
27939;SDS011;15275;51.716;14.324;2023-04-21T01:34:42;11.18;;;5.53;;
27939;SDS011;15275;51.716;14.324;2023-04-21T01:37:10;12.93;;;5.70;;
27939;SDS011;15275;51.716;14.324;2023-04-21T01:39:39;14.18;;;5.90;;
27939;SDS011;15275;51.716;14.324;2023-04-21T01:42:07;9.68;;;5.60;;
27939;SDS011;15275;51.716;14.324;2023-04-21T01:44:33;15.73;;;6.50;;
27939;SDS011;15275;51.716;14.324;2023-04-21T01:46:59;11.52;;;6.20;;
27939;SDS011;15275;51.716;14.324;2023-04-21T01:49:26;11.13;;;6.65;;
27939;SDS011;15275;51.716;14.324;2023-04-21T01:51:52;13.68;;;5.63;;
27939;SDS011;15275;51.716;14.324;2023-04-21T01:54:17;14.13;;;6.22;;
27939;SDS011;15275;51.716;14.324;2023-04-21T01:56:43;10.60;;;5.72;;
27939;SDS011;15275;51.716;14.324;2023-04-21T01:59:09;12.07;;;5.97;;
27939;SDS011;15275;51.716;14.324;2023-04-21T02:01:35;11.38;;;5.88;;
27939;SDS011;15275;51.716;14.324;2023-04-21T02:04:01;12.07;;;6.32;;
27939;SDS011;15275;51.716;14.324;2023-04-21T02:06:28;11.10;;;5.40;;
27939;SDS011;15275;51.716;14.324;2023-04-21T02:08:55;11.23;;;6.10;;
27939;SDS011;15275;51.716;14.324;2023-04-21T02:11:23;12.27;;;6.53;;
27939;SDS011;15275;51.716;14.324;2023-04-21T02:13:50;11.30;;;5.95;;
27939;SDS011;15275;51.716;14.324;2023-04-21T02:16:17;12.00;;;6.18;;
27939;SDS011;15275;51.716;14.324;2023-04-21T02:18:44;15.02;;;5.97;;
27939;SDS011;15275;51.716;14.324;2023-04-21T02:21:12;9.43;;;5.53;;
27939;SDS011;15275;51.716;14.324;2023-04-21T02:23:39;12.82;;;6.93;;
27939;SDS011;15275;51.716;14.324;2023-04-21T02:26:05;9.18;;;5.97;;
27939;SDS011;15275;51.716;14.324;2023-04-21T02:28:31;12.75;;;6.25;;
27939;SDS011;15275;51.716;14.324;2023-04-21T02:30:57;8.05;;;5.50;;
27939;SDS011;15275;51.716;14.324;2023-04-21T02:33:23;12.40;;;5.70;;
27939;SDS011;15275;51.716;14.324;2023-04-21T02:35:49;12.55;;;5.95;;
27939;SDS011;15275;51.716;14.324;2023-04-21T02:38:14;14.05;;;6.22;;
27939;SDS011;15275;51.716;14.324;2023-04-21T02:40:40;12.27;;;6.50;;
27939;SDS011;15275;51.716;14.324;2023-04-21T02:43:06;14.10;;;6.82;;
27939;SDS011;15275;51.716;14.324;2023-04-21T02:45:32;14.57;;;6.65;;
27939;SDS011;15275;51.716;14.324;2023-04-21T02:47:58;16.42;;;6.65;;
27939;SDS011;15275;51.716;14.324;2023-04-21T02:50:24;14.07;;;6.78;;
27939;SDS011;15275;51.716;14.324;2023-04-21T02:52:50;17.13;;;7.72;;
27939;SDS011;15275;51.716;14.324;2023-04-21T02:55:16;15.70;;;6.72;;
27939;SDS011;15275;51.716;14.324;2023-04-21T02:57:42;15.95;;;7.85;;
27939;SDS011;15275;51.716;14.324;2023-04-21T03:00:08;18.25;;;7.32;;
27939;SDS011;15275;51.716;14.324;2023-04-21T03:02:36;13.30;;;7.00;;
27939;SDS011;15275;51.716;14.324;2023-04-21T03:05:02;16.30;;;7.82;;
27939;SDS011;15275;51.716;14.324;2023-04-21T03:07:28;11.70;;;8.18;;
27939;SDS011;15275;51.716;14.324;2023-04-21T03:09:54;16.50;;;7.93;;
27939;SDS011;15275;51.716;14.324;2023-04-21T03:12:20;15.00;;;7.88;;
27939;SDS011;15275;51.716;14.324;2023-04-21T03:14:46;16.05;;;7.60;;
27939;SDS011;15275;51.716;14.324;2023-04-21T03:17:12;13.23;;;7.38;;
27939;SDS011;15275;51.716;14.324;2023-04-21T03:19:38;20.55;;;8.73;;
27939;SDS011;15275;51.716;14.324;2023-04-21T03:22:04;21.90;;;8.48;;
27939;SDS011;15275;51.716;14.324;2023-04-21T03:24:31;22.92;;;9.93;;
27939;SDS011;15275;51.716;14.324;2023-04-21T03:26:57;16.58;;;8.52;;
27939;SDS011;15275;51.716;14.324;2023-04-21T03:29:23;15.52;;;7.55;;
27939;SDS011;15275;51.716;14.324;2023-04-21T03:31:49;17.75;;;8.27;;
27939;SDS011;15275;51.716;14.324;2023-04-21T03:34:15;19.15;;;9.55;;
27939;SDS011;15275;51.716;14.324;2023-04-21T03:36:41;18.77;;;9.05;;
27939;SDS011;15275;51.716;14.324;2023-04-21T03:39:07;19.98;;;9.45;;
27939;SDS011;15275;51.716;14.324;2023-04-21T03:41:33;12.65;;;8.73;;
27939;SDS011;15275;51.716;14.324;2023-04-21T03:43:59;16.55;;;9.32;;
27939;SDS011;15275;51.716;14.324;2023-04-21T03:46:24;14.90;;;9.07;;
27939;SDS011;15275;51.716;14.324;2023-04-21T03:48:50;14.02;;;9.73;;
27939;SDS011;15275;51.716;14.324;2023-04-21T03:51:16;15.27;;;9.68;;
27939;SDS011;15275;51.716;14.324;2023-04-21T03:53:42;20.50;;;9.68;;
27939;SDS011;15275;51.716;14.324;2023-04-21T03:56:08;16.52;;;9.82;;
27939;SDS011;15275;51.716;14.324;2023-04-21T03:58:34;19.90;;;9.23;;
27939;SDS011;15275;51.716;14.324;2023-04-21T04:01:00;14.82;;;8.85;;
27939;SDS011;15275;51.716;14.324;2023-04-21T04:03:28;16.95;;;9.63;;
27939;SDS011;15275;51.716;14.324;2023-04-21T04:05:54;20.70;;;9.90;;
27939;SDS011;15275;51.716;14.324;2023-04-21T04:08:20;17.02;;;9.23;;
27939;SDS011;15275;51.716;14.324;2023-04-21T04:10:46;19.42;;;11.20;;
27939;SDS011;15275;51.716;14.324;2023-04-21T04:13:11;19.90;;;10.10;;
27939;SDS011;15275;51.716;14.324;2023-04-21T04:15:37;20.60;;;11.50;;
27939;SDS011;15275;51.716;14.324;2023-04-21T04:18:03;19.27;;;10.00;;
27939;SDS011;15275;51.716;14.324;2023-04-21T04:20:29;26.38;;;10.48;;
27939;SDS011;15275;51.716;14.324;2023-04-21T04:22:55;19.77;;;11.60;;
27939;SDS011;15275;51.716;14.324;2023-04-21T04:25:21;25.73;;;11.93;;
27939;SDS011;15275;51.716;14.324;2023-04-21T04:27:47;20.45;;;11.52;;
27939;SDS011;15275;51.716;14.324;2023-04-21T04:30:14;19.63;;;11.77;;
27939;SDS011;15275;51.716;14.324;2023-04-21T04:32:41;24.17;;;11.60;;
27939;SDS011;15275;51.716;14.324;2023-04-21T04:35:07;22.60;;;11.85;;
27939;SDS011;15275;51.716;14.324;2023-04-21T04:37:35;20.55;;;10.43;;
27939;SDS011;15275;51.716;14.324;2023-04-21T04:40:01;24.83;;;12.23;;
27939;SDS011;15275;51.716;14.324;2023-04-21T04:42:34;22.13;;;11.60;;
27939;SDS011;15275;51.716;14.324;2023-04-21T04:45:00;19.13;;;11.55;;
27939;SDS011;15275;51.716;14.324;2023-04-21T04:47:27;22.67;;;12.25;;
27939;SDS011;15275;51.716;14.324;2023-04-21T04:49:53;18.83;;;11.27;;
27939;SDS011;15275;51.716;14.324;2023-04-21T04:52:19;30.08;;;16.35;;
27939;SDS011;15275;51.716;14.324;2023-04-21T04:54:45;41.78;;;21.23;;
27939;SDS011;15275;51.716;14.324;2023-04-21T04:57:11;37.67;;;20.17;;
27939;SDS011;15275;51.716;14.324;2023-04-21T04:59:37;31.20;;;17.35;;
27939;SDS011;15275;51.716;14.324;2023-04-21T05:02:03;23.13;;;13.63;;
27939;SDS011;15275;51.716;14.324;2023-04-21T05:04:28;31.95;;;13.90;;
27939;SDS011;15275;51.716;14.324;2023-04-21T05:06:54;24.60;;;13.80;;
27939;SDS011;15275;51.716;14.324;2023-04-21T05:09:20;26.77;;;12.63;;
27939;SDS011;15275;51.716;14.324;2023-04-21T05:11:46;22.48;;;12.00;;
27939;SDS011;15275;51.716;14.324;2023-04-21T05:14:12;21.02;;;12.02;;
27939;SDS011;15275;51.716;14.324;2023-04-21T05:16:38;21.83;;;11.93;;
27939;SDS011;15275;51.716;14.324;2023-04-21T05:19:03;19.67;;;12.85;;
27939;SDS011;15275;51.716;14.324;2023-04-21T05:21:29;23.45;;;11.77;;
27939;SDS011;15275;51.716;14.324;2023-04-21T05:23:56;23.20;;;12.77;;
27939;SDS011;15275;51.716;14.324;2023-04-21T05:26:23;19.58;;;12.15;;
27939;SDS011;15275;51.716;14.324;2023-04-21T05:28:52;20.83;;;11.70;;
27939;SDS011;15275;51.716;14.324;2023-04-21T05:31:25;17.52;;;11.55;;
27939;SDS011;15275;51.716;14.324;2023-04-21T05:33:51;24.27;;;12.43;;
27939;SDS011;15275;51.716;14.324;2023-04-21T05:36:17;19.08;;;11.60;;
27939;SDS011;15275;51.716;14.324;2023-04-21T05:38:44;20.08;;;12.02;;
27939;SDS011;15275;51.716;14.324;2023-04-21T05:41:10;19.27;;;12.15;;
27939;SDS011;15275;51.716;14.324;2023-04-21T05:43:36;24.88;;;12.45;;
27939;SDS011;15275;51.716;14.324;2023-04-21T05:46:04;27.02;;;12.27;;
27939;SDS011;15275;51.716;14.324;2023-04-21T05:48:34;19.23;;;12.45;;
27939;SDS011;15275;51.716;14.324;2023-04-21T05:51:10;18.35;;;11.45;;
27939;SDS011;15275;51.716;14.324;2023-04-21T05:53:38;20.95;;;11.82;;
27939;SDS011;15275;51.716;14.324;2023-04-21T05:56:04;22.85;;;13.13;;
27939;SDS011;15275;51.716;14.324;2023-04-21T05:58:32;25.40;;;14.25;;
27939;SDS011;15275;51.716;14.324;2023-04-21T06:00:58;21.00;;;12.30;;
27939;SDS011;15275;51.716;14.324;2023-04-21T06:03:24;25.17;;;13.52;;
27939;SDS011;15275;51.716;14.324;2023-04-21T06:05:53;22.52;;;12.55;;
27939;SDS011;15275;51.716;14.324;2023-04-21T06:08:20;19.10;;;11.77;;
27939;SDS011;15275;51.716;14.324;2023-04-21T06:10:47;20.25;;;12.95;;
27939;SDS011;15275;51.716;14.324;2023-04-21T06:13:13;20.88;;;12.70;;
27939;SDS011;15275;51.716;14.324;2023-04-21T06:15:39;22.00;;;12.73;;
27939;SDS011;15275;51.716;14.324;2023-04-21T06:18:05;16.20;;;10.93;;
27939;SDS011;15275;51.716;14.324;2023-04-21T06:20:31;21.15;;;12.18;;
27939;SDS011;15275;51.716;14.324;2023-04-21T06:22:57;19.83;;;11.90;;
27939;SDS011;15275;51.716;14.324;2023-04-21T06:25:23;22.15;;;12.23;;
27939;SDS011;15275;51.716;14.324;2023-04-21T06:27:49;16.10;;;11.38;;
27939;SDS011;15275;51.716;14.324;2023-04-21T06:30:15;24.27;;;11.90;;
27939;SDS011;15275;51.716;14.324;2023-04-21T06:32:41;27.65;;;13.15;;
27939;SDS011;15275;51.716;14.324;2023-04-21T06:35:10;21.77;;;12.02;;
27939;SDS011;15275;51.716;14.324;2023-04-21T06:37:36;23.10;;;11.90;;
27939;SDS011;15275;51.716;14.324;2023-04-21T06:40:02;21.67;;;12.75;;
27939;SDS011;15275;51.716;14.324;2023-04-21T06:42:28;24.52;;;12.88;;
27939;SDS011;15275;51.716;14.324;2023-04-21T06:44:54;26.27;;;12.90;;
27939;SDS011;15275;51.716;14.324;2023-04-21T06:47:20;20.15;;;12.65;;
27939;SDS011;15275;51.716;14.324;2023-04-21T06:49:46;20.58;;;12.82;;
27939;SDS011;15275;51.716;14.324;2023-04-21T06:52:12;23.08;;;11.60;;
27939;SDS011;15275;51.716;14.324;2023-04-21T06:54:38;19.17;;;12.10;;
27939;SDS011;15275;51.716;14.324;2023-04-21T06:57:04;23.08;;;13.27;;
27939;SDS011;15275;51.716;14.324;2023-04-21T06:59:30;19.95;;;12.98;;
27939;SDS011;15275;51.716;14.324;2023-04-21T07:01:58;21.98;;;12.60;;
27939;SDS011;15275;51.716;14.324;2023-04-21T07:04:24;27.20;;;13.38;;
27939;SDS011;15275;51.716;14.324;2023-04-21T07:06:54;20.70;;;12.80;;
27939;SDS011;15275;51.716;14.324;2023-04-21T07:09:20;21.05;;;12.10;;
27939;SDS011;15275;51.716;14.324;2023-04-21T07:11:46;23.38;;;13.30;;
27939;SDS011;15275;51.716;14.324;2023-04-21T07:14:12;22.80;;;12.95;;
27939;SDS011;15275;51.716;14.324;2023-04-21T07:16:38;21.00;;;12.32;;
27939;SDS011;15275;51.716;14.324;2023-04-21T07:19:04;19.25;;;11.95;;
27939;SDS011;15275;51.716;14.324;2023-04-21T07:21:30;25.42;;;11.82;;
27939;SDS011;15275;51.716;14.324;2023-04-21T07:24:00;21.73;;;13.13;;
27939;SDS011;15275;51.716;14.324;2023-04-21T07:26:29;22.48;;;13.40;;
27939;SDS011;15275;51.716;14.324;2023-04-21T07:28:57;26.10;;;12.30;;
27939;SDS011;15275;51.716;14.324;2023-04-21T07:31:25;21.92;;;12.98;;
27939;SDS011;15275;51.716;14.324;2023-04-21T07:33:51;30.27;;;13.15;;
27939;SDS011;15275;51.716;14.324;2023-04-21T07:36:17;19.33;;;11.98;;
27939;SDS011;15275;51.716;14.324;2023-04-21T07:38:43;18.75;;;11.40;;
27939;SDS011;15275;51.716;14.324;2023-04-21T07:41:09;21.42;;;12.77;;
27939;SDS011;15275;51.716;14.324;2023-04-21T07:43:39;19.52;;;12.57;;
27939;SDS011;15275;51.716;14.324;2023-04-21T07:46:05;22.17;;;12.50;;
27939;SDS011;15275;51.716;14.324;2023-04-21T07:48:31;18.38;;;11.35;;
27939;SDS011;15275;51.716;14.324;2023-04-21T07:50:57;18.63;;;11.15;;
27939;SDS011;15275;51.716;14.324;2023-04-21T07:53:24;21.48;;;11.35;;
27939;SDS011;15275;51.716;14.324;2023-04-21T07:55:53;20.23;;;11.60;;
27939;SDS011;15275;51.716;14.324;2023-04-21T07:58:19;19.70;;;11.88;;
27939;SDS011;15275;51.716;14.324;2023-04-21T08:00:46;20.70;;;11.32;;
27939;SDS011;15275;51.716;14.324;2023-04-21T08:03:13;19.20;;;11.77;;
27939;SDS011;15275;51.716;14.324;2023-04-21T08:05:39;20.67;;;12.20;;
27939;SDS011;15275;51.716;14.324;2023-04-21T08:08:05;16.55;;;10.82;;
27939;SDS011;15275;51.716;14.324;2023-04-21T08:10:31;20.60;;;10.85;;
27939;SDS011;15275;51.716;14.324;2023-04-21T08:12:57;21.80;;;10.63;;
27939;SDS011;15275;51.716;14.324;2023-04-21T08:15:24;19.50;;;11.45;;
27939;SDS011;15275;51.716;14.324;2023-04-21T08:17:50;15.77;;;10.65;;
27939;SDS011;15275;51.716;14.324;2023-04-21T08:20:16;29.83;;;11.25;;
27939;SDS011;15275;51.716;14.324;2023-04-21T08:22:42;19.63;;;11.05;;
27939;SDS011;15275;51.716;14.324;2023-04-21T08:25:08;17.42;;;9.32;;
27939;SDS011;15275;51.716;14.324;2023-04-21T08:27:36;14.80;;;9.60;;
27939;SDS011;15275;51.716;14.324;2023-04-21T08:30:03;15.95;;;9.52;;
27939;SDS011;15275;51.716;14.324;2023-04-21T08:32:31;15.10;;;9.30;;
27939;SDS011;15275;51.716;14.324;2023-04-21T08:34:57;19.13;;;9.98;;
27939;SDS011;15275;51.716;14.324;2023-04-21T08:37:22;15.05;;;9.75;;
27939;SDS011;15275;51.716;14.324;2023-04-21T08:39:48;17.73;;;10.10;;
27939;SDS011;15275;51.716;14.324;2023-04-21T08:42:17;14.95;;;9.93;;
27939;SDS011;15275;51.716;14.324;2023-04-21T08:44:44;20.35;;;9.63;;
27939;SDS011;15275;51.716;14.324;2023-04-21T08:47:11;17.42;;;10.10;;
27939;SDS011;15275;51.716;14.324;2023-04-21T08:49:39;14.70;;;9.80;;
27939;SDS011;15275;51.716;14.324;2023-04-21T08:52:06;16.75;;;9.27;;
27939;SDS011;15275;51.716;14.324;2023-04-21T08:54:32;16.42;;;9.23;;
27939;SDS011;15275;51.716;14.324;2023-04-21T08:57:00;14.00;;;9.85;;
27939;SDS011;15275;51.716;14.324;2023-04-21T08:59:29;13.77;;;8.73;;
27939;SDS011;15275;51.716;14.324;2023-04-21T09:02:05;12.82;;;9.02;;
27939;SDS011;15275;51.716;14.324;2023-04-21T09:04:45;14.40;;;9.80;;
27939;SDS011;15275;51.716;14.324;2023-04-21T09:10:03;12.60;;;9.02;;
27939;SDS011;15275;51.716;14.324;2023-04-21T09:12:30;11.88;;;8.82;;
27939;SDS011;15275;51.716;14.324;2023-04-21T09:14:56;16.27;;;8.82;;
27939;SDS011;15275;51.716;14.324;2023-04-21T09:17:26;11.88;;;7.85;;
27939;SDS011;15275;51.716;14.324;2023-04-21T09:20:10;12.18;;;8.20;;
27939;SDS011;15275;51.716;14.324;2023-04-21T09:22:43;12.13;;;8.68;;
27939;SDS011;15275;51.716;14.324;2023-04-21T09:25:09;17.80;;;8.50;;
27939;SDS011;15275;51.716;14.324;2023-04-21T09:27:40;14.63;;;8.98;;
27939;SDS011;15275;51.716;14.324;2023-04-21T09:30:07;14.10;;;8.45;;
27939;SDS011;15275;51.716;14.324;2023-04-21T09:32:39;11.02;;;8.00;;
27939;SDS011;15275;51.716;14.324;2023-04-21T09:35:09;17.52;;;8.05;;
27939;SDS011;15275;51.716;14.324;2023-04-21T09:37:36;11.75;;;7.90;;
27939;SDS011;15275;51.716;14.324;2023-04-21T09:40:03;11.25;;;8.60;;
27939;SDS011;15275;51.716;14.324;2023-04-21T09:42:33;15.70;;;8.38;;
27939;SDS011;15275;51.716;14.324;2023-04-21T09:45:00;12.88;;;7.97;;
27939;SDS011;15275;51.716;14.324;2023-04-21T09:47:30;14.05;;;8.35;;
27939;SDS011;15275;51.716;14.324;2023-04-21T09:50:05;12.45;;;7.50;;
27939;SDS011;15275;51.716;14.324;2023-04-21T09:52:33;11.65;;;7.55;;
27939;SDS011;15275;51.716;14.324;2023-04-21T09:55:01;12.98;;;7.30;;
27939;SDS011;15275;51.716;14.324;2023-04-21T09:57:37;9.48;;;7.25;;
27939;SDS011;15275;51.716;14.324;2023-04-21T10:00:06;12.95;;;7.25;;
27939;SDS011;15275;51.716;14.324;2023-04-21T10:03:09;10.32;;;6.80;;
27939;SDS011;15275;51.716;14.324;2023-04-21T10:05:29;18.00;;;7.38;;
27939;SDS011;15275;51.716;14.324;2023-04-21T10:07:56;9.85;;;7.10;;
27939;SDS011;15275;51.716;14.324;2023-04-21T10:10:27;12.32;;;7.15;;
27939;SDS011;15275;51.716;14.324;2023-04-21T10:15:33;8.88;;;6.00;;
27939;SDS011;15275;51.716;14.324;2023-04-21T10:18:22;11.48;;;6.35;;
27939;SDS011;15275;51.716;14.324;2023-04-21T10:20:49;9.05;;;6.40;;
27939;SDS011;15275;51.716;14.324;2023-04-21T10:26:10;11.65;;;6.00;;
27939;SDS011;15275;51.716;14.324;2023-04-21T10:28:56;7.57;;;5.63;;
27939;SDS011;15275;51.716;14.324;2023-04-21T10:36:31;9.98;;;6.10;;
27939;SDS011;15275;51.716;14.324;2023-04-21T10:39:01;9.15;;;5.85;;
27939;SDS011;15275;51.716;14.324;2023-04-21T10:41:29;11.45;;;6.72;;
27939;SDS011;15275;51.716;14.324;2023-04-21T10:46:36;8.73;;;5.82;;
27939;SDS011;15275;51.716;14.324;2023-04-21T10:54:22;8.98;;;5.70;;
27939;SDS011;15275;51.716;14.324;2023-04-21T10:57:04;7.30;;;5.10;;
27939;SDS011;15275;51.716;14.324;2023-04-21T10:59:35;13.48;;;6.43;;
27939;SDS011;15275;51.716;14.324;2023-04-21T11:02:02;8.18;;;5.40;;
27939;SDS011;15275;51.716;14.324;2023-04-21T11:04:49;9.65;;;5.22;;
27939;SDS011;15275;51.716;14.324;2023-04-21T11:07:17;8.15;;;5.85;;
27939;SDS011;15275;51.716;14.324;2023-04-21T11:09:45;7.32;;;5.43;;
27939;SDS011;15275;51.716;14.324;2023-04-21T11:12:16;9.15;;;5.72;;
27939;SDS011;15275;51.716;14.324;2023-04-21T11:14:43;10.63;;;6.30;;
27939;SDS011;15275;51.716;14.324;2023-04-21T11:17:12;7.55;;;5.30;;
27939;SDS011;15275;51.716;14.324;2023-04-21T11:19:40;8.90;;;6.10;;
27939;SDS011;15275;51.716;14.324;2023-04-21T11:22:20;8.68;;;5.85;;
27939;SDS011;15275;51.716;14.324;2023-04-21T11:24:49;8.48;;;5.78;;
27939;SDS011;15275;51.716;14.324;2023-04-21T11:27:18;11.80;;;6.03;;
27939;SDS011;15275;51.716;14.324;2023-04-21T11:29:46;8.15;;;5.90;;
27939;SDS011;15275;51.716;14.324;2023-04-21T11:32:14;6.10;;;5.32;;
27939;SDS011;15275;51.716;14.324;2023-04-21T11:34:41;11.15;;;6.07;;
27939;SDS011;15275;51.716;14.324;2023-04-21T11:37:07;6.93;;;5.75;;
27939;SDS011;15275;51.716;14.324;2023-04-21T11:40:00;9.30;;;5.70;;
27939;SDS011;15275;51.716;14.324;2023-04-21T11:44:54;9.13;;;5.50;;
27939;SDS011;15275;51.716;14.324;2023-04-21T11:47:25;8.30;;;6.13;;
27939;SDS011;15275;51.716;14.324;2023-04-21T11:49:52;10.00;;;6.32;;
27939;SDS011;15275;51.716;14.324;2023-04-21T11:52:24;10.98;;;5.55;;
27939;SDS011;15275;51.716;14.324;2023-04-21T11:55:02;9.50;;;5.70;;
27939;SDS011;15275;51.716;14.324;2023-04-21T11:57:43;7.57;;;5.70;;
27939;SDS011;15275;51.716;14.324;2023-04-21T12:00:10;8.35;;;6.00;;
27939;SDS011;15275;51.716;14.324;2023-04-21T12:02:41;8.15;;;6.00;;
27939;SDS011;15275;51.716;14.324;2023-04-21T12:05:11;8.18;;;6.07;;
27939;SDS011;15275;51.716;14.324;2023-04-21T12:07:40;10.70;;;6.25;;
27939;SDS011;15275;51.716;14.324;2023-04-21T12:10:09;7.03;;;5.20;;
27939;SDS011;15275;51.716;14.324;2023-04-21T12:12:38;7.32;;;5.40;;
27939;SDS011;15275;51.716;14.324;2023-04-21T12:15:06;6.85;;;5.50;;
27939;SDS011;15275;51.716;14.324;2023-04-21T12:17:35;8.45;;;6.05;;
27939;SDS011;15275;51.716;14.324;2023-04-21T12:20:04;7.38;;;5.65;;
27939;SDS011;15275;51.716;14.324;2023-04-21T12:22:31;8.65;;;5.68;;
27939;SDS011;15275;51.716;14.324;2023-04-21T12:24:57;7.65;;;6.30;;
27939;SDS011;15275;51.716;14.324;2023-04-21T12:27:23;9.35;;;6.05;;
27939;SDS011;15275;51.716;14.324;2023-04-21T12:29:49;8.82;;;5.90;;
27939;SDS011;15275;51.716;14.324;2023-04-21T12:32:15;7.88;;;5.70;;
27939;SDS011;15275;51.716;14.324;2023-04-21T12:34:41;11.88;;;5.78;;
27939;SDS011;15275;51.716;14.324;2023-04-21T12:37:07;14.40;;;6.20;;
27939;SDS011;15275;51.716;14.324;2023-04-21T12:39:33;10.50;;;6.03;;
27939;SDS011;15275;51.716;14.324;2023-04-21T12:41:59;7.25;;;5.20;;
27939;SDS011;15275;51.716;14.324;2023-04-21T12:44:26;7.22;;;5.32;;
27939;SDS011;15275;51.716;14.324;2023-04-21T12:46:52;9.15;;;5.63;;
27939;SDS011;15275;51.716;14.324;2023-04-21T12:49:18;10.48;;;5.60;;
27939;SDS011;15275;51.716;14.324;2023-04-21T12:51:44;7.78;;;6.22;;
27939;SDS011;15275;51.716;14.324;2023-04-21T12:54:11;8.80;;;6.43;;
27939;SDS011;15275;51.716;14.324;2023-04-21T12:56:38;8.65;;;6.20;;
27939;SDS011;15275;51.716;14.324;2023-04-21T12:59:07;15.00;;;6.88;;
27939;SDS011;15275;51.716;14.324;2023-04-21T13:01:38;11.05;;;6.80;;
27939;SDS011;15275;51.716;14.324;2023-04-21T13:04:06;10.68;;;6.38;;
27939;SDS011;15275;51.716;14.324;2023-04-21T13:06:32;8.98;;;5.97;;
27939;SDS011;15275;51.716;14.324;2023-04-21T13:08:59;7.03;;;5.85;;
27939;SDS011;15275;51.716;14.324;2023-04-21T13:11:25;16.23;;;6.45;;
27939;SDS011;15275;51.716;14.324;2023-04-21T13:13:51;9.93;;;6.03;;
27939;SDS011;15275;51.716;14.324;2023-04-21T13:16:17;8.65;;;6.40;;
27939;SDS011;15275;51.716;14.324;2023-04-21T13:18:44;8.43;;;6.20;;
27939;SDS011;15275;51.716;14.324;2023-04-21T13:21:11;9.15;;;6.15;;
27939;SDS011;15275;51.716;14.324;2023-04-21T13:23:37;7.82;;;6.20;;
27939;SDS011;15275;51.716;14.324;2023-04-21T13:26:03;9.82;;;5.60;;
27939;SDS011;15275;51.716;14.324;2023-04-21T13:28:29;8.80;;;6.30;;
27939;SDS011;15275;51.716;14.324;2023-04-21T13:30:56;8.80;;;6.18;;
27939;SDS011;15275;51.716;14.324;2023-04-21T13:33:22;12.13;;;5.63;;
27939;SDS011;15275;51.716;14.324;2023-04-21T13:35:48;8.93;;;6.25;;
27939;SDS011;15275;51.716;14.324;2023-04-21T13:38:15;8.48;;;6.40;;
27939;SDS011;15275;51.716;14.324;2023-04-21T13:40:41;9.30;;;6.60;;
27939;SDS011;15275;51.716;14.324;2023-04-21T13:43:07;7.30;;;5.60;;
27939;SDS011;15275;51.716;14.324;2023-04-21T13:45:33;10.20;;;6.60;;
27939;SDS011;15275;51.716;14.324;2023-04-21T13:47:59;9.13;;;5.90;;
27939;SDS011;15275;51.716;14.324;2023-04-21T13:50:25;9.00;;;6.22;;
27939;SDS011;15275;51.716;14.324;2023-04-21T13:52:51;7.97;;;5.43;;
27939;SDS011;15275;51.716;14.324;2023-04-21T13:55:17;10.30;;;5.75;;
27939;SDS011;15275;51.716;14.324;2023-04-21T13:57:44;9.38;;;6.35;;
27939;SDS011;15275;51.716;14.324;2023-04-21T14:00:11;8.82;;;6.40;;
27939;SDS011;15275;51.716;14.324;2023-04-21T14:02:38;7.60;;;5.45;;
27939;SDS011;15275;51.716;14.324;2023-04-21T14:05:05;10.00;;;5.68;;
27939;SDS011;15275;51.716;14.324;2023-04-21T14:07:31;9.23;;;6.15;;
27939;SDS011;15275;51.716;14.324;2023-04-21T14:09:58;8.43;;;6.30;;
27939;SDS011;15275;51.716;14.324;2023-04-21T14:12:25;10.82;;;5.80;;
27939;SDS011;15275;51.716;14.324;2023-04-21T14:14:51;8.80;;;6.32;;
27939;SDS011;15275;51.716;14.324;2023-04-21T14:17:17;8.95;;;6.63;;
27939;SDS011;15275;51.716;14.324;2023-04-21T14:19:43;10.23;;;6.55;;
27939;SDS011;15275;51.716;14.324;2023-04-21T14:22:08;7.35;;;5.93;;
27939;SDS011;15275;51.716;14.324;2023-04-21T14:24:34;7.53;;;6.03;;
27939;SDS011;15275;51.716;14.324;2023-04-21T14:27:00;8.52;;;5.53;;
27939;SDS011;15275;51.716;14.324;2023-04-21T14:29:26;7.82;;;6.20;;
27939;SDS011;15275;51.716;14.324;2023-04-21T14:31:52;11.65;;;6.13;;
27939;SDS011;15275;51.716;14.324;2023-04-21T14:34:22;8.18;;;6.13;;
27939;SDS011;15275;51.716;14.324;2023-04-21T14:36:50;11.35;;;6.28;;
27939;SDS011;15275;51.716;14.324;2023-04-21T14:39:16;11.35;;;5.97;;
27939;SDS011;15275;51.716;14.324;2023-04-21T14:41:42;7.95;;;5.57;;
27939;SDS011;15275;51.716;14.324;2023-04-21T14:44:08;8.00;;;6.13;;
27939;SDS011;15275;51.716;14.324;2023-04-21T14:46:34;11.98;;;6.20;;